ETSI

Ingolstadt Manching Airport

Manching, Germany
METAR ETSI 190620Z AUTO 08004KT 6000 // ////// M05/M07 Q1017 ///
Observed Flight Rules
Jan-19 @ 06:20 UTC (31 minutes ago)
Wind Visibility
80° at 4 knots 6,003 meters
Temperatures Readings
Current -5°C / 23°F
Dewpoint -7°C / 19°F
Humidity 86%
Altimeter 30.03" Hg
Pressure 1016.92 hPa
Elevation 370
METAR ETSI 190620Z AUTO 08004KT 6000 // ////// M05/M07 Q1017 ///
Observed Flight Rules
Jan-19 @ 06:20 UTC
(31 minutes ago)
Wind Visibility
80° at 4 knots 6,003 meters
Temperature Dewpoint
-5°C / 23°F -7°C / 19°F
Humidity Altimeter Pressure
86% 30.03" Hg 1016.92 hPa